sensor_id;sensor_type;location;lat;lon;timestamp;P1;durP1;ratioP1;P2;durP2;ratioP2
28822;SDS011;15961;54.678;9.110;2022-08-03T00:01:50;27.60;;;18.25;;
28822;SDS011;15961;54.678;9.110;2022-08-03T00:04:16;27.05;;;18.92;;
28822;SDS011;15961;54.678;9.110;2022-08-03T00:06:42;25.20;;;18.05;;
28822;SDS011;15961;54.678;9.110;2022-08-03T00:09:07;23.67;;;17.33;;
28822;SDS011;15961;54.678;9.110;2022-08-03T00:11:33;24.55;;;17.48;;
28822;SDS011;15961;54.678;9.110;2022-08-03T00:13:59;26.27;;;17.30;;
28822;SDS011;15961;54.678;9.110;2022-08-03T00:16:25;25.35;;;18.05;;
28822;SDS011;15961;54.678;9.110;2022-08-03T00:18:51;23.02;;;18.75;;
28822;SDS011;15961;54.678;9.110;2022-08-03T00:21:17;28.90;;;21.20;;
28822;SDS011;15961;54.678;9.110;2022-08-03T00:23:42;31.52;;;22.00;;
28822;SDS011;15961;54.678;9.110;2022-08-03T00:26:08;30.45;;;20.80;;
28822;SDS011;15961;54.678;9.110;2022-08-03T00:28:34;27.88;;;19.42;;
28822;SDS011;15961;54.678;9.110;2022-08-03T00:30:59;33.85;;;22.13;;
28822;SDS011;15961;54.678;9.110;2022-08-03T00:33:25;30.52;;;22.80;;
28822;SDS011;15961;54.678;9.110;2022-08-03T00:35:50;38.60;;;23.92;;
28822;SDS011;15961;54.678;9.110;2022-08-03T00:38:17;44.38;;;26.73;;
28822;SDS011;15961;54.678;9.110;2022-08-03T00:40:42;35.85;;;25.05;;
28822;SDS011;15961;54.678;9.110;2022-08-03T00:43:08;44.30;;;27.83;;
28822;SDS011;15961;54.678;9.110;2022-08-03T00:45:35;43.13;;;27.15;;
28822;SDS011;15961;54.678;9.110;2022-08-03T00:48:03;38.03;;;25.35;;
28822;SDS011;15961;54.678;9.110;2022-08-03T00:50:31;34.22;;;24.65;;
28822;SDS011;15961;54.678;9.110;2022-08-03T00:52:59;37.17;;;22.77;;
28822;SDS011;15961;54.678;9.110;2022-08-03T00:55:27;30.50;;;21.88;;
28822;SDS011;15961;54.678;9.110;2022-08-03T00:57:53;33.17;;;21.02;;
28822;SDS011;15961;54.678;9.110;2022-08-03T01:00:20;34.60;;;24.23;;
28822;SDS011;15961;54.678;9.110;2022-08-03T01:02:48;32.75;;;23.02;;
28822;SDS011;15961;54.678;9.110;2022-08-03T01:05:14;29.00;;;20.85;;
28822;SDS011;15961;54.678;9.110;2022-08-03T01:07:41;29.35;;;22.98;;
28822;SDS011;15961;54.678;9.110;2022-08-03T01:10:41;35.47;;;24.27;;
28822;SDS011;15961;54.678;9.110;2022-08-03T01:18:21;42.65;;;24.80;;
28822;SDS011;15961;54.678;9.110;2022-08-03T01:21:06;32.63;;;24.85;;
28822;SDS011;15961;54.678;9.110;2022-08-03T01:23:51;32.55;;;21.58;;
28822;SDS011;15961;54.678;9.110;2022-08-03T01:31:58;40.97;;;26.55;;
28822;SDS011;15961;54.678;9.110;2022-08-03T01:34:33;28.10;;;22.33;;
28822;SDS011;15961;54.678;9.110;2022-08-03T01:37:03;32.13;;;24.75;;
28822;SDS011;15961;54.678;9.110;2022-08-03T01:39:31;36.13;;;27.00;;
28822;SDS011;15961;54.678;9.110;2022-08-03T01:42:00;36.00;;;25.95;;
28822;SDS011;15961;54.678;9.110;2022-08-03T01:44:30;37.60;;;26.20;;
28822;SDS011;15961;54.678;9.110;2022-08-03T01:47:01;51.35;;;32.17;;
28822;SDS011;15961;54.678;9.110;2022-08-03T01:49:27;35.15;;;24.45;;
28822;SDS011;15961;54.678;9.110;2022-08-03T01:51:56;39.97;;;26.65;;
28822;SDS011;15961;54.678;9.110;2022-08-03T01:54:23;32.30;;;24.05;;
28822;SDS011;15961;54.678;9.110;2022-08-03T01:56:51;33.03;;;22.90;;
28822;SDS011;15961;54.678;9.110;2022-08-03T01:59:20;31.85;;;23.33;;
28822;SDS011;15961;54.678;9.110;2022-08-03T02:01:47;30.08;;;23.30;;
28822;SDS011;15961;54.678;9.110;2022-08-03T02:04:16;31.48;;;22.88;;
28822;SDS011;15961;54.678;9.110;2022-08-03T02:06:44;43.78;;;28.13;;
28822;SDS011;15961;54.678;9.110;2022-08-03T02:09:11;38.40;;;28.33;;
28822;SDS011;15961;54.678;9.110;2022-08-03T02:11:38;43.72;;;27.02;;
28822;SDS011;15961;54.678;9.110;2022-08-03T02:14:06;43.25;;;29.70;;
28822;SDS011;15961;54.678;9.110;2022-08-03T02:16:33;37.55;;;27.98;;
28822;SDS011;15961;54.678;9.110;2022-08-03T02:18:59;40.75;;;27.88;;
28822;SDS011;15961;54.678;9.110;2022-08-03T02:21:28;49.45;;;29.33;;
28822;SDS011;15961;54.678;9.110;2022-08-03T02:23:57;41.70;;;27.88;;
28822;SDS011;15961;54.678;9.110;2022-08-03T02:26:23;35.67;;;27.40;;
28822;SDS011;15961;54.678;9.110;2022-08-03T02:28:53;31.50;;;24.92;;
28822;SDS011;15961;54.678;9.110;2022-08-03T02:31:22;45.97;;;28.38;;
28822;SDS011;15961;54.678;9.110;2022-08-03T02:33:51;42.13;;;29.08;;
28822;SDS011;15961;54.678;9.110;2022-08-03T02:36:19;44.22;;;31.00;;
28822;SDS011;15961;54.678;9.110;2022-08-03T02:38:51;46.28;;;32.42;;
28822;SDS011;15961;54.678;9.110;2022-08-03T02:41:20;49.67;;;31.95;;
28822;SDS011;15961;54.678;9.110;2022-08-03T02:43:48;49.70;;;30.65;;
28822;SDS011;15961;54.678;9.110;2022-08-03T02:46:19;42.53;;;30.88;;
28822;SDS011;15961;54.678;9.110;2022-08-03T02:48:47;41.53;;;31.80;;
28822;SDS011;15961;54.678;9.110;2022-08-03T02:51:17;43.47;;;32.45;;
28822;SDS011;15961;54.678;9.110;2022-08-03T02:53:44;41.45;;;28.58;;
28822;SDS011;15961;54.678;9.110;2022-08-03T02:56:11;43.28;;;28.13;;
28822;SDS011;15961;54.678;9.110;2022-08-03T02:58:38;38.35;;;28.27;;
28822;SDS011;15961;54.678;9.110;2022-08-03T03:01:05;46.03;;;31.52;;
28822;SDS011;15961;54.678;9.110;2022-08-03T03:03:32;51.13;;;30.25;;
28822;SDS011;15961;54.678;9.110;2022-08-03T03:05:59;51.97;;;30.15;;
28822;SDS011;15961;54.678;9.110;2022-08-03T03:08:26;48.13;;;32.80;;
28822;SDS011;15961;54.678;9.110;2022-08-03T03:10:52;44.95;;;29.50;;
28822;SDS011;15961;54.678;9.110;2022-08-03T03:13:19;49.50;;;32.15;;
28822;SDS011;15961;54.678;9.110;2022-08-03T03:15:47;48.03;;;30.05;;
28822;SDS011;15961;54.678;9.110;2022-08-03T03:18:13;42.38;;;29.02;;
28822;SDS011;15961;54.678;9.110;2022-08-03T03:20:40;44.88;;;30.50;;
28822;SDS011;15961;54.678;9.110;2022-08-03T03:23:06;51.95;;;31.23;;
28822;SDS011;15961;54.678;9.110;2022-08-03T03:25:33;55.33;;;33.78;;
28822;SDS011;15961;54.678;9.110;2022-08-03T03:28:00;43.80;;;29.90;;
28822;SDS011;15961;54.678;9.110;2022-08-03T03:30:26;48.95;;;32.25;;
28822;SDS011;15961;54.678;9.110;2022-08-03T03:32:52;52.30;;;32.58;;
28822;SDS011;15961;54.678;9.110;2022-08-03T03:35:19;42.88;;;29.60;;
28822;SDS011;15961;54.678;9.110;2022-08-03T03:37:44;54.97;;;32.00;;
28822;SDS011;15961;54.678;9.110;2022-08-03T03:40:10;44.75;;;30.98;;
28822;SDS011;15961;54.678;9.110;2022-08-03T03:42:36;46.13;;;29.00;;
28822;SDS011;15961;54.678;9.110;2022-08-03T03:45:03;42.50;;;26.05;;
28822;SDS011;15961;54.678;9.110;2022-08-03T03:47:34;39.83;;;28.50;;
28822;SDS011;15961;54.678;9.110;2022-08-03T03:50:01;40.72;;;26.00;;
28822;SDS011;15961;54.678;9.110;2022-08-03T03:52:28;44.42;;;27.40;;
28822;SDS011;15961;54.678;9.110;2022-08-03T03:54:53;38.40;;;23.15;;
28822;SDS011;15961;54.678;9.110;2022-08-03T03:57:19;37.35;;;26.45;;
28822;SDS011;15961;54.678;9.110;2022-08-03T03:59:44;48.67;;;25.48;;
28822;SDS011;15961;54.678;9.110;2022-08-03T04:02:10;44.67;;;25.00;;
28822;SDS011;15961;54.678;9.110;2022-08-03T04:04:37;38.63;;;23.92;;
28822;SDS011;15961;54.678;9.110;2022-08-03T04:07:25;42.33;;;23.23;;
28822;SDS011;15961;54.678;9.110;2022-08-03T04:10:14;48.25;;;24.23;;
28822;SDS011;15961;54.678;9.110;2022-08-03T04:13:03;45.30;;;25.33;;
28822;SDS011;15961;54.678;9.110;2022-08-03T04:15:34;39.83;;;23.67;;
28822;SDS011;15961;54.678;9.110;2022-08-03T04:18:05;45.13;;;23.80;;
28822;SDS011;15961;54.678;9.110;2022-08-03T04:20:34;36.60;;;22.05;;
28822;SDS011;15961;54.678;9.110;2022-08-03T04:23:02;31.05;;;20.75;;
28822;SDS011;15961;54.678;9.110;2022-08-03T04:25:30;43.92;;;21.63;;
28822;SDS011;15961;54.678;9.110;2022-08-03T04:27:58;37.53;;;21.15;;
28822;SDS011;15961;54.678;9.110;2022-08-03T04:30:26;37.53;;;21.13;;
28822;SDS011;15961;54.678;9.110;2022-08-03T04:32:57;37.80;;;21.52;;
28822;SDS011;15961;54.678;9.110;2022-08-03T04:35:23;34.10;;;19.25;;
28822;SDS011;15961;54.678;9.110;2022-08-03T04:37:52;34.42;;;18.33;;
28822;SDS011;15961;54.678;9.110;2022-08-03T04:40:21;44.35;;;18.23;;
28822;SDS011;15961;54.678;9.110;2022-08-03T04:42:52;35.88;;;18.15;;
28822;SDS011;15961;54.678;9.110;2022-08-03T04:45:19;40.40;;;18.00;;
28822;SDS011;15961;54.678;9.110;2022-08-03T04:47:45;39.53;;;17.83;;
28822;SDS011;15961;54.678;9.110;2022-08-03T04:50:11;29.42;;;17.58;;
28822;SDS011;15961;54.678;9.110;2022-08-03T04:52:37;33.70;;;16.27;;
28822;SDS011;15961;54.678;9.110;2022-08-03T04:55:03;36.85;;;16.17;;
28822;SDS011;15961;54.678;9.110;2022-08-03T04:57:29;23.85;;;15.00;;
28822;SDS011;15961;54.678;9.110;2022-08-03T04:59:54;31.23;;;15.05;;
28822;SDS011;15961;54.678;9.110;2022-08-03T05:02:20;28.05;;;15.73;;
28822;SDS011;15961;54.678;9.110;2022-08-03T05:04:46;28.65;;;16.33;;
28822;SDS011;15961;54.678;9.110;2022-08-03T05:07:12;27.40;;;14.98;;
28822;SDS011;15961;54.678;9.110;2022-08-03T05:09:38;38.63;;;15.93;;
28822;SDS011;15961;54.678;9.110;2022-08-03T05:12:04;32.50;;;14.70;;
28822;SDS011;15961;54.678;9.110;2022-08-03T05:14:31;30.77;;;14.82;;
28822;SDS011;15961;54.678;9.110;2022-08-03T05:17:02;28.15;;;14.20;;
28822;SDS011;15961;54.678;9.110;2022-08-03T05:19:31;22.08;;;13.93;;
28822;SDS011;15961;54.678;9.110;2022-08-03T05:21:57;30.30;;;15.35;;
28822;SDS011;15961;54.678;9.110;2022-08-03T05:24:22;26.02;;;13.07;;
28822;SDS011;15961;54.678;9.110;2022-08-03T05:26:48;20.67;;;14.02;;
28822;SDS011;15961;54.678;9.110;2022-08-03T05:29:13;35.83;;;14.07;;
28822;SDS011;15961;54.678;9.110;2022-08-03T05:31:39;22.75;;;12.95;;
28822;SDS011;15961;54.678;9.110;2022-08-03T05:34:04;22.27;;;12.30;;
28822;SDS011;15961;54.678;9.110;2022-08-03T05:36:30;31.65;;;13.25;;
28822;SDS011;15961;54.678;9.110;2022-08-03T05:38:56;25.10;;;11.32;;
28822;SDS011;15961;54.678;9.110;2022-08-03T05:41:22;20.88;;;10.90;;
28822;SDS011;15961;54.678;9.110;2022-08-03T05:43:47;28.73;;;11.63;;
28822;SDS011;15961;54.678;9.110;2022-08-03T05:46:13;23.52;;;11.93;;
28822;SDS011;15961;54.678;9.110;2022-08-03T05:48:39;28.60;;;13.07;;
28822;SDS011;15961;54.678;9.110;2022-08-03T05:51:06;15.35;;;10.05;;
28822;SDS011;15961;54.678;9.110;2022-08-03T05:53:35;22.15;;;10.25;;
28822;SDS011;15961;54.678;9.110;2022-08-03T05:56:01;26.42;;;10.68;;
28822;SDS011;15961;54.678;9.110;2022-08-03T05:58:27;18.20;;;8.93;;
28822;SDS011;15961;54.678;9.110;2022-08-03T06:00:53;17.80;;;10.50;;
28822;SDS011;15961;54.678;9.110;2022-08-03T06:03:18;23.10;;;11.68;;
28822;SDS011;15961;54.678;9.110;2022-08-03T06:05:44;23.52;;;9.55;;
28822;SDS011;15961;54.678;9.110;2022-08-03T06:08:10;21.35;;;9.20;;
28822;SDS011;15961;54.678;9.110;2022-08-03T06:10:35;16.73;;;8.10;;
28822;SDS011;15961;54.678;9.110;2022-08-03T06:13:01;17.23;;;8.38;;
28822;SDS011;15961;54.678;9.110;2022-08-03T06:15:26;12.57;;;7.40;;
28822;SDS011;15961;54.678;9.110;2022-08-03T06:17:52;14.70;;;6.20;;
28822;SDS011;15961;54.678;9.110;2022-08-03T06:20:18;12.35;;;6.03;;
28822;SDS011;15961;54.678;9.110;2022-08-03T06:22:45;18.17;;;6.13;;
28822;SDS011;15961;54.678;9.110;2022-08-03T06:25:11;14.27;;;7.18;;
28822;SDS011;15961;54.678;9.110;2022-08-03T06:27:37;12.68;;;5.70;;
28822;SDS011;15961;54.678;9.110;2022-08-03T06:30:07;18.92;;;6.85;;
28822;SDS011;15961;54.678;9.110;2022-08-03T06:32:34;13.52;;;5.43;;
28822;SDS011;15961;54.678;9.110;2022-08-03T06:35:07;18.45;;;6.78;;
28822;SDS011;15961;54.678;9.110;2022-08-03T06:38:06;15.35;;;5.85;;
28822;SDS011;15961;54.678;9.110;2022-08-03T06:40:25;14.77;;;4.97;;
28822;SDS011;15961;54.678;9.110;2022-08-03T06:42:58;12.73;;;5.13;;
28822;SDS011;15961;54.678;9.110;2022-08-03T06:45:25;16.15;;;4.97;;
28822;SDS011;15961;54.678;9.110;2022-08-03T06:47:59;11.48;;;4.63;;
28822;SDS011;15961;54.678;9.110;2022-08-03T06:50:25;9.05;;;5.80;;
28822;SDS011;15961;54.678;9.110;2022-08-03T06:52:51;12.45;;;5.72;;
28822;SDS011;15961;54.678;9.110;2022-08-03T06:55:17;16.70;;;6.47;;
28822;SDS011;15961;54.678;9.110;2022-08-03T06:57:42;16.20;;;6.18;;
28822;SDS011;15961;54.678;9.110;2022-08-03T07:00:08;21.60;;;6.55;;
28822;SDS011;15961;54.678;9.110;2022-08-03T07:02:35;16.10;;;5.25;;
28822;SDS011;15961;54.678;9.110;2022-08-03T07:05:01;18.00;;;5.80;;
28822;SDS011;15961;54.678;9.110;2022-08-03T07:07:27;19.23;;;6.30;;
28822;SDS011;15961;54.678;9.110;2022-08-03T07:09:53;16.00;;;5.00;;
28822;SDS011;15961;54.678;9.110;2022-08-03T07:12:18;19.08;;;4.82;;
28822;SDS011;15961;54.678;9.110;2022-08-03T07:14:44;14.27;;;4.20;;
28822;SDS011;15961;54.678;9.110;2022-08-03T07:17:09;17.92;;;4.10;;
28822;SDS011;15961;54.678;9.110;2022-08-03T07:19:35;8.15;;;3.97;;
28822;SDS011;15961;54.678;9.110;2022-08-03T07:22:00;19.33;;;4.15;;
28822;SDS011;15961;54.678;9.110;2022-08-03T07:24:27;19.92;;;4.03;;
28822;SDS011;15961;54.678;9.110;2022-08-03T07:26:54;13.00;;;4.07;;
28822;SDS011;15961;54.678;9.110;2022-08-03T07:29:20;13.60;;;3.92;;
28822;SDS011;15961;54.678;9.110;2022-08-03T07:31:45;12.93;;;3.63;;
28822;SDS011;15961;54.678;9.110;2022-08-03T07:34:11;11.65;;;4.05;;
28822;SDS011;15961;54.678;9.110;2022-08-03T07:36:37;12.60;;;3.75;;
28822;SDS011;15961;54.678;9.110;2022-08-03T07:39:02;9.35;;;2.92;;
28822;SDS011;15961;54.678;9.110;2022-08-03T07:41:28;12.13;;;2.67;;
28822;SDS011;15961;54.678;9.110;2022-08-03T07:43:54;8.77;;;3.22;;
28822;SDS011;15961;54.678;9.110;2022-08-03T07:46:19;23.55;;;3.92;;
28822;SDS011;15961;54.678;9.110;2022-08-03T07:48:45;11.20;;;3.25;;
28822;SDS011;15961;54.678;9.110;2022-08-03T07:51:10;12.40;;;3.13;;
28822;SDS011;15961;54.678;9.110;2022-08-03T07:53:36;17.02;;;3.88;;
28822;SDS011;15961;54.678;9.110;2022-08-03T07:56:01;11.05;;;3.45;;
28822;SDS011;15961;54.678;9.110;2022-08-03T07:58:27;18.50;;;4.22;;
28822;SDS011;15961;54.678;9.110;2022-08-03T08:00:53;16.33;;;3.72;;
28822;SDS011;15961;54.678;9.110;2022-08-03T08:03:18;18.60;;;4.15;;
28822;SDS011;15961;54.678;9.110;2022-08-03T08:05:45;12.63;;;3.22;;
28822;SDS011;15961;54.678;9.110;2022-08-03T08:08:11;15.07;;;3.60;;
28822;SDS011;15961;54.678;9.110;2022-08-03T08:10:37;14.18;;;3.45;;
28822;SDS011;15961;54.678;9.110;2022-08-03T08:13:03;17.70;;;3.42;;
28822;SDS011;15961;54.678;9.110;2022-08-03T08:15:28;20.05;;;2.70;;
28822;SDS011;15961;54.678;9.110;2022-08-03T08:17:55;12.75;;;3.25;;
28822;SDS011;15961;54.678;9.110;2022-08-03T08:20:24;15.35;;;3.65;;
28822;SDS011;15961;54.678;9.110;2022-08-03T08:22:51;10.80;;;3.05;;
28822;SDS011;15961;54.678;9.110;2022-08-03T08:25:16;24.73;;;4.72;;
28822;SDS011;15961;54.678;9.110;2022-08-03T08:27:43;13.57;;;3.90;;
28822;SDS011;15961;54.678;9.110;2022-08-03T08:30:10;15.85;;;3.50;;
28822;SDS011;15961;54.678;9.110;2022-08-03T08:32:37;15.98;;;4.03;;
28822;SDS011;15961;54.678;9.110;2022-08-03T08:35:03;17.63;;;4.60;;
28822;SDS011;15961;54.678;9.110;2022-08-03T08:37:30;20.02;;;3.72;;
28822;SDS011;15961;54.678;9.110;2022-08-03T08:39:55;15.80;;;4.43;;
28822;SDS011;15961;54.678;9.110;2022-08-03T08:42:21;13.18;;;3.90;;
28822;SDS011;15961;54.678;9.110;2022-08-03T08:44:47;14.23;;;3.97;;
28822;SDS011;15961;54.678;9.110;2022-08-03T08:47:13;23.30;;;4.63;;
28822;SDS011;15961;54.678;9.110;2022-08-03T08:49:39;20.13;;;5.20;;
28822;SDS011;15961;54.678;9.110;2022-08-03T08:52:06;16.05;;;4.30;;
28822;SDS011;15961;54.678;9.110;2022-08-03T08:54:32;20.30;;;4.25;;
28822;SDS011;15961;54.678;9.110;2022-08-03T08:57:01;31.67;;;4.40;;
28822;SDS011;15961;54.678;9.110;2022-08-03T08:59:31;14.52;;;4.13;;
28822;SDS011;15961;54.678;9.110;2022-08-03T09:02:00;23.38;;;5.10;;
28822;SDS011;15961;54.678;9.110;2022-08-03T09:04:27;17.73;;;5.07;;
28822;SDS011;15961;54.678;9.110;2022-08-03T09:06:53;19.15;;;4.65;;
28822;SDS011;15961;54.678;9.110;2022-08-03T09:09:19;15.70;;;4.75;;
28822;SDS011;15961;54.678;9.110;2022-08-03T09:11:45;9.85;;;3.97;;
28822;SDS011;15961;54.678;9.110;2022-08-03T09:14:12;21.08;;;4.90;;
28822;SDS011;15961;54.678;9.110;2022-08-03T09:16:38;23.95;;;4.82;;
28822;SDS011;15961;54.678;9.110;2022-08-03T09:19:21;14.57;;;4.63;;
28822;SDS011;15961;54.678;9.110;2022-08-03T09:21:46;23.77;;;5.00;;
28822;SDS011;15961;54.678;9.110;2022-08-03T09:24:31;19.00;;;5.20;;
28822;SDS011;15961;54.678;9.110;2022-08-03T09:26:57;24.52;;;5.15;;
28822;SDS011;15961;54.678;9.110;2022-08-03T09:29:23;19.98;;;6.45;;
28822;SDS011;15961;54.678;9.110;2022-08-03T09:31:49;21.13;;;6.18;;
28822;SDS011;15961;54.678;9.110;2022-08-03T09:34:25;24.25;;;6.30;;
28822;SDS011;15961;54.678;9.110;2022-08-03T09:36:52;29.10;;;5.85;;
28822;SDS011;15961;54.678;9.110;2022-08-03T09:39:19;21.17;;;6.43;;
28822;SDS011;15961;54.678;9.110;2022-08-03T09:41:47;20.50;;;5.85;;
28822;SDS011;15961;54.678;9.110;2022-08-03T09:44:37;29.08;;;6.68;;
28822;SDS011;15961;54.678;9.110;2022-08-03T09:47:14;25.90;;;5.57;;
28822;SDS011;15961;54.678;9.110;2022-08-03T09:50:06;20.48;;;5.53;;
28822;SDS011;15961;54.678;9.110;2022-08-03T09:52:35;21.65;;;6.97;;
28822;SDS011;15961;54.678;9.110;2022-08-03T09:55:07;25.05;;;5.93;;
28822;SDS011;15961;54.678;9.110;2022-08-03T09:57:34;20.33;;;6.30;;
28822;SDS011;15961;54.678;9.110;2022-08-03T10:00:10;24.63;;;7.07;;
28822;SDS011;15961;54.678;9.110;2022-08-03T10:02:38;24.63;;;6.05;;
28822;SDS011;15961;54.678;9.110;2022-08-03T10:05:05;26.02;;;7.03;;
28822;SDS011;15961;54.678;9.110;2022-08-03T10:07:41;23.80;;;5.57;;
28822;SDS011;15961;54.678;9.110;2022-08-03T10:10:14;22.15;;;6.10;;
28822;SDS011;15961;54.678;9.110;2022-08-03T10:12:41;24.70;;;5.22;;
28822;SDS011;15961;54.678;9.110;2022-08-03T10:15:07;21.17;;;6.60;;
28822;SDS011;15961;54.678;9.110;2022-08-03T10:17:34;21.90;;;5.70;;
28822;SDS011;15961;54.678;9.110;2022-08-03T10:20:00;21.55;;;4.70;;
28822;SDS011;15961;54.678;9.110;2022-08-03T10:22:29;21.23;;;6.03;;
28822;SDS011;15961;54.678;9.110;2022-08-03T10:24:58;19.27;;;5.03;;
28822;SDS011;15961;54.678;9.110;2022-08-03T10:27:25;17.15;;;5.30;;
28822;SDS011;15961;54.678;9.110;2022-08-03T10:29:55;20.02;;;6.60;;
28822;SDS011;15961;54.678;9.110;2022-08-03T10:32:29;19.50;;;6.63;;
28822;SDS011;15961;54.678;9.110;2022-08-03T10:35:09;19.40;;;5.55;;
28822;SDS011;15961;54.678;9.110;2022-08-03T10:37:40;27.15;;;6.32;;
28822;SDS011;15961;54.678;9.110;2022-08-03T10:40:09;31.10;;;6.68;;
28822;SDS011;15961;54.678;9.110;2022-08-03T10:42:38;24.33;;;5.80;;
28822;SDS011;15961;54.678;9.110;2022-08-03T10:45:08;15.70;;;5.65;;
28822;SDS011;15961;54.678;9.110;2022-08-03T10:47:45;20.13;;;5.35;;
28822;SDS011;15961;54.678;9.110;2022-08-03T10:50:12;18.13;;;5.90;;
28822;SDS011;15961;54.678;9.110;2022-08-03T11:01:01;26.60;;;6.18;;
28822;SDS011;15961;54.678;9.110;2022-08-03T11:03:31;24.45;;;5.60;;
28822;SDS011;15961;54.678;9.110;2022-08-03T11:11:37;16.52;;;5.00;;
28822;SDS011;15961;54.678;9.110;2022-08-03T11:14:17;22.25;;;5.25;;
28822;SDS011;15961;54.678;9.110;2022-08-03T11:16:46;21.98;;;5.43;;
28822;SDS011;15961;54.678;9.110;2022-08-03T11:19:17;17.10;;;4.60;;
28822;SDS011;15961;54.678;9.110;2022-08-03T11:29:59;27.58;;;6.55;;
28822;SDS011;15961;54.678;9.110;2022-08-03T11:46:01;19.13;;;5.88;;
28822;SDS011;15961;54.678;9.110;2022-08-03T11:48:38;14.52;;;6.63;;
28822;SDS011;15961;54.678;9.110;2022-08-03T11:51:07;26.63;;;6.65;;
28822;SDS011;15961;54.678;9.110;2022-08-03T11:53:50;24.83;;;5.30;;
28822;SDS011;15961;54.678;9.110;2022-08-03T11:56:20;16.02;;;4.97;;
28822;SDS011;15961;54.678;9.110;2022-08-03T11:58:46;20.45;;;5.50;;
28822;SDS011;15961;54.678;9.110;2022-08-03T12:01:13;23.83;;;7.10;;
28822;SDS011;15961;54.678;9.110;2022-08-03T12:03:41;22.55;;;5.72;;
28822;SDS011;15961;54.678;9.110;2022-08-03T12:06:10;20.92;;;5.65;;
28822;SDS011;15961;54.678;9.110;2022-08-03T12:08:37;31.80;;;6.22;;
28822;SDS011;15961;54.678;9.110;2022-08-03T12:11:05;18.60;;;4.50;;
28822;SDS011;15961;54.678;9.110;2022-08-03T12:13:42;18.45;;;5.25;;
28822;SDS011;15961;54.678;9.110;2022-08-03T12:16:09;21.65;;;5.05;;
28822;SDS011;15961;54.678;9.110;2022-08-03T12:18:41;21.60;;;6.07;;
28822;SDS011;15961;54.678;9.110;2022-08-03T12:21:07;20.08;;;5.75;;
28822;SDS011;15961;54.678;9.110;2022-08-03T12:23:34;20.45;;;5.80;;
28822;SDS011;15961;54.678;9.110;2022-08-03T12:26:01;22.15;;;5.68;;
28822;SDS011;15961;54.678;9.110;2022-08-03T12:28:33;18.75;;;5.55;;
28822;SDS011;15961;54.678;9.110;2022-08-03T12:31:01;24.92;;;4.90;;
28822;SDS011;15961;54.678;9.110;2022-08-03T12:33:30;19.77;;;5.47;;
28822;SDS011;15961;54.678;9.110;2022-08-03T12:38:33;19.02;;;4.55;;
28822;SDS011;15961;54.678;9.110;2022-08-03T12:41:09;13.40;;;4.30;;
28822;SDS011;15961;54.678;9.110;2022-08-03T12:43:49;13.52;;;3.35;;
28822;SDS011;15961;54.678;9.110;2022-08-03T12:46:16;14.90;;;3.78;;
28822;SDS011;15961;54.678;9.110;2022-08-03T12:51:26;13.13;;;3.33;;
28822;SDS011;15961;54.678;9.110;2022-08-03T12:53:53;17.15;;;3.65;;
28822;SDS011;15961;54.678;9.110;2022-08-03T12:56:20;20.85;;;3.85;;
28822;SDS011;15961;54.678;9.110;2022-08-03T12:58:46;25.17;;;5.18;;
28822;SDS011;15961;54.678;9.110;2022-08-03T13:01:12;13.70;;;4.80;;
28822;SDS011;15961;54.678;9.110;2022-08-03T13:03:47;15.98;;;3.92;;
28822;SDS011;15961;54.678;9.110;2022-08-03T13:06:14;24.98;;;5.03;;
28822;SDS011;15961;54.678;9.110;2022-08-03T13:08:44;12.57;;;4.35;;
28822;SDS011;15961;54.678;9.110;2022-08-03T13:11:21;16.00;;;3.97;;
28822;SDS011;15961;54.678;9.110;2022-08-03T13:13:49;13.88;;;4.03;;
28822;SDS011;15961;54.678;9.110;2022-08-03T13:16:15;22.83;;;4.82;;
28822;SDS011;15961;54.678;9.110;2022-08-03T13:18:41;19.02;;;4.68;;
28822;SDS011;15961;54.678;9.110;2022-08-03T13:21:06;21.88;;;4.97;;
28822;SDS011;15961;54.678;9.110;2022-08-03T13:23:32;16.05;;;3.85;;
28822;SDS011;15961;54.678;9.110;2022-08-03T13:25:58;15.02;;;4.75;;
28822;SDS011;15961;54.678;9.110;2022-08-03T13:28:23;11.35;;;3.05;;
28822;SDS011;15961;54.678;9.110;2022-08-03T13:30:49;14.93;;;4.40;;
28822;SDS011;15961;54.678;9.110;2022-08-03T13:33:15;22.73;;;2.97;;
28822;SDS011;15961;54.678;9.110;2022-08-03T13:35:40;14.23;;;3.35;;
28822;SDS011;15961;54.678;9.110;2022-08-03T13:38:06;18.25;;;3.95;;
28822;SDS011;15961;54.678;9.110;2022-08-03T13:40:31;18.50;;;3.95;;
28822;SDS011;15961;54.678;9.110;2022-08-03T13:42:58;18.02;;;4.30;;
28822;SDS011;15961;54.678;9.110;2022-08-03T13:45:24;12.95;;;3.28;;
28822;SDS011;15961;54.678;9.110;2022-08-03T13:47:51;21.05;;;4.20;;
28822;SDS011;15961;54.678;9.110;2022-08-03T13:50:17;11.23;;;2.78;;
28822;SDS011;15961;54.678;9.110;2022-08-03T13:52:42;10.25;;;4.07;;
28822;SDS011;15961;54.678;9.110;2022-08-03T13:55:10;17.70;;;3.97;;
28822;SDS011;15961;54.678;9.110;2022-08-03T13:57:35;17.50;;;4.18;;
28822;SDS011;15961;54.678;9.110;2022-08-03T14:00:02;16.65;;;4.20;;
28822;SDS011;15961;54.678;9.110;2022-08-03T14:02:29;15.90;;;3.58;;
28822;SDS011;15961;54.678;9.110;2022-08-03T14:04:54;13.32;;;3.42;;
28822;SDS011;15961;54.678;9.110;2022-08-03T14:07:20;9.95;;;2.97;;
28822;SDS011;15961;54.678;9.110;2022-08-03T14:09:45;18.00;;;2.90;;
28822;SDS011;15961;54.678;9.110;2022-08-03T14:12:11;9.50;;;3.40;;
28822;SDS011;15961;54.678;9.110;2022-08-03T14:14:36;16.10;;;4.75;;
28822;SDS011;15961;54.678;9.110;2022-08-03T14:17:02;15.93;;;3.95;;
28822;SDS011;15961;54.678;9.110;2022-08-03T14:19:28;13.48;;;4.28;;
28822;SDS011;15961;54.678;9.110;2022-08-03T14:21:53;18.00;;;4.32;;
28822;SDS011;15961;54.678;9.110;2022-08-03T14:24:19;18.95;;;5.63;;
28822;SDS011;15961;54.678;9.110;2022-08-03T14:26:44;25.25;;;5.57;;
28822;SDS011;15961;54.678;9.110;2022-08-03T14:29:10;15.02;;;5.07;;
28822;SDS011;15961;54.678;9.110;2022-08-03T14:31:36;16.17;;;4.22;;
28822;SDS011;15961;54.678;9.110;2022-08-03T14:34:01;21.95;;;5.90;;
28822;SDS011;15961;54.678;9.110;2022-08-03T14:36:27;20.10;;;5.47;;
28822;SDS011;15961;54.678;9.110;2022-08-03T14:38:53;14.20;;;4.05;;
28822;SDS011;15961;54.678;9.110;2022-08-03T14:41:18;19.80;;;5.70;;
28822;SDS011;15961;54.678;9.110;2022-08-03T14:43:44;34.92;;;6.07;;
28822;SDS011;15961;54.678;9.110;2022-08-03T14:46:09;19.23;;;5.13;;
28822;SDS011;15961;54.678;9.110;2022-08-03T14:48:35;37.38;;;6.80;;
28822;SDS011;15961;54.678;9.110;2022-08-03T14:51:00;23.92;;;5.43;;
28822;SDS011;15961;54.678;9.110;2022-08-03T14:53:26;24.40;;;7.10;;
28822;SDS011;15961;54.678;9.110;2022-08-03T14:55:53;22.30;;;5.78;;
28822;SDS011;15961;54.678;9.110;2022-08-03T14:58:19;25.70;;;6.10;;
28822;SDS011;15961;54.678;9.110;2022-08-03T15:00:46;27.42;;;7.25;;
28822;SDS011;15961;54.678;9.110;2022-08-03T15:03:11;27.27;;;5.40;;
28822;SDS011;15961;54.678;9.110;2022-08-03T15:05:37;27.35;;;6.43;;
28822;SDS011;15961;54.678;9.110;2022-08-03T15:08:02;28.25;;;6.40;;
28822;SDS011;15961;54.678;9.110;2022-08-03T15:10:28;21.90;;;5.38;;
28822;SDS011;15961;54.678;9.110;2022-08-03T15:12:54;25.95;;;6.15;;
28822;SDS011;15961;54.678;9.110;2022-08-03T15:15:19;22.50;;;5.10;;
28822;SDS011;15961;54.678;9.110;2022-08-03T15:17:45;27.55;;;5.88;;
28822;SDS011;15961;54.678;9.110;2022-08-03T15:20:10;32.55;;;6.28;;
28822;SDS011;15961;54.678;9.110;2022-08-03T15:22:39;23.95;;;5.45;;
28822;SDS011;15961;54.678;9.110;2022-08-03T15:25:05;20.77;;;5.75;;